sensor_id;sensor_type;location;lat;lon;timestamp;P1;durP1;ratioP1;P2;durP2;ratioP2
76896;SDS011;65856;52.178;21.176;2023-04-06T00:01:13;10.60;;;5.10;;
76896;SDS011;65856;52.178;21.176;2023-04-06T00:03:43;11.90;;;5.10;;
76896;SDS011;65856;52.178;21.176;2023-04-06T00:06:14;13.30;;;5.10;;
76896;SDS011;65856;52.178;21.176;2023-04-06T00:08:44;9.60;;;4.90;;
76896;SDS011;65856;52.178;21.176;2023-04-06T00:11:15;11.90;;;5.60;;
76896;SDS011;65856;52.178;21.176;2023-04-06T00:13:46;10.10;;;4.70;;
76896;SDS011;65856;52.178;21.176;2023-04-06T00:16:16;10.60;;;5.10;;
76896;SDS011;65856;52.178;21.176;2023-04-06T00:18:47;8.80;;;4.80;;
76896;SDS011;65856;52.178;21.176;2023-04-06T00:21:18;10.10;;;5.00;;
76896;SDS011;65856;52.178;21.176;2023-04-06T00:23:49;11.80;;;5.30;;
76896;SDS011;65856;52.178;21.176;2023-04-06T00:26:19;10.70;;;5.10;;
76896;SDS011;65856;52.178;21.176;2023-04-06T00:28:50;13.50;;;5.70;;
76896;SDS011;65856;52.178;21.176;2023-04-06T00:31:20;9.50;;;5.10;;
76896;SDS011;65856;52.178;21.176;2023-04-06T00:33:51;13.00;;;5.70;;
76896;SDS011;65856;52.178;21.176;2023-04-06T00:36:22;12.20;;;5.10;;
76896;SDS011;65856;52.178;21.176;2023-04-06T00:38:53;11.00;;;4.70;;
76896;SDS011;65856;52.178;21.176;2023-04-06T00:41:23;11.00;;;5.30;;
76896;SDS011;65856;52.178;21.176;2023-04-06T00:43:54;12.50;;;5.30;;
76896;SDS011;65856;52.178;21.176;2023-04-06T00:46:25;12.30;;;5.90;;
76896;SDS011;65856;52.178;21.176;2023-04-06T00:48:56;11.80;;;5.50;;
76896;SDS011;65856;52.178;21.176;2023-04-06T00:51:26;12.40;;;5.50;;
76896;SDS011;65856;52.178;21.176;2023-04-06T00:53:57;11.90;;;5.60;;
76896;SDS011;65856;52.178;21.176;2023-04-06T00:56:28;10.60;;;5.80;;
76896;SDS011;65856;52.178;21.176;2023-04-06T00:58:58;12.90;;;6.30;;
76896;SDS011;65856;52.178;21.176;2023-04-06T01:01:30;10.80;;;5.60;;
76896;SDS011;65856;52.178;21.176;2023-04-06T01:04:01;12.40;;;5.40;;
76896;SDS011;65856;52.178;21.176;2023-04-06T01:06:32;11.50;;;5.80;;
76896;SDS011;65856;52.178;21.176;2023-04-06T01:09:02;10.30;;;5.30;;
76896;SDS011;65856;52.178;21.176;2023-04-06T01:11:33;13.30;;;5.80;;
76896;SDS011;65856;52.178;21.176;2023-04-06T01:14:05;11.70;;;5.70;;
76896;SDS011;65856;52.178;21.176;2023-04-06T01:16:36;12.20;;;5.20;;
76896;SDS011;65856;52.178;21.176;2023-04-06T01:19:11;12.40;;;5.40;;
76896;SDS011;65856;52.178;21.176;2023-04-06T01:21:42;12.70;;;5.80;;
76896;SDS011;65856;52.178;21.176;2023-04-06T01:24:13;12.20;;;5.60;;
76896;SDS011;65856;52.178;21.176;2023-04-06T01:26:44;11.00;;;5.70;;
76896;SDS011;65856;52.178;21.176;2023-04-06T01:29:15;13.40;;;5.70;;
76896;SDS011;65856;52.178;21.176;2023-04-06T01:31:45;13.20;;;5.20;;
76896;SDS011;65856;52.178;21.176;2023-04-06T01:34:16;11.30;;;5.30;;
76896;SDS011;65856;52.178;21.176;2023-04-06T01:36:47;11.70;;;5.50;;
76896;SDS011;65856;52.178;21.176;2023-04-06T01:39:18;11.00;;;5.60;;
76896;SDS011;65856;52.178;21.176;2023-04-06T01:41:49;13.90;;;5.70;;
76896;SDS011;65856;52.178;21.176;2023-04-06T01:44:20;15.20;;;6.70;;
76896;SDS011;65856;52.178;21.176;2023-04-06T01:46:50;12.30;;;5.90;;
76896;SDS011;65856;52.178;21.176;2023-04-06T01:49:21;12.90;;;6.10;;
76896;SDS011;65856;52.178;21.176;2023-04-06T01:51:52;12.70;;;5.50;;
76896;SDS011;65856;52.178;21.176;2023-04-06T01:54:23;13.30;;;5.70;;
76896;SDS011;65856;52.178;21.176;2023-04-06T01:56:54;12.50;;;5.90;;
76896;SDS011;65856;52.178;21.176;2023-04-06T01:59:24;13.60;;;5.90;;
76896;SDS011;65856;52.178;21.176;2023-04-06T02:01:55;12.10;;;5.40;;
76896;SDS011;65856;52.178;21.176;2023-04-06T02:04:25;12.50;;;5.70;;
76896;SDS011;65856;52.178;21.176;2023-04-06T02:06:56;12.40;;;6.10;;
76896;SDS011;65856;52.178;21.176;2023-04-06T02:09:27;13.90;;;5.90;;
76896;SDS011;65856;52.178;21.176;2023-04-06T02:11:57;9.80;;;5.50;;
76896;SDS011;65856;52.178;21.176;2023-04-06T02:14:29;10.50;;;5.50;;
76896;SDS011;65856;52.178;21.176;2023-04-06T02:16:59;11.90;;;4.70;;
76896;SDS011;65856;52.178;21.176;2023-04-06T02:19:30;12.80;;;5.10;;
76896;SDS011;65856;52.178;21.176;2023-04-06T02:22:00;11.90;;;5.60;;
76896;SDS011;65856;52.178;21.176;2023-04-06T02:24:31;11.60;;;5.30;;
76896;SDS011;65856;52.178;21.176;2023-04-06T02:27:02;10.00;;;5.10;;
76896;SDS011;65856;52.178;21.176;2023-04-06T02:29:33;10.90;;;4.70;;
76896;SDS011;65856;52.178;21.176;2023-04-06T02:32:04;11.50;;;5.50;;
76896;SDS011;65856;52.178;21.176;2023-04-06T02:34:35;10.20;;;4.40;;
76896;SDS011;65856;52.178;21.176;2023-04-06T02:37:06;11.10;;;4.60;;
76896;SDS011;65856;52.178;21.176;2023-04-06T02:39:36;11.60;;;4.90;;
76896;SDS011;65856;52.178;21.176;2023-04-06T02:42:07;9.00;;;4.70;;
76896;SDS011;65856;52.178;21.176;2023-04-06T02:44:38;8.50;;;4.50;;
76896;SDS011;65856;52.178;21.176;2023-04-06T02:47:08;10.50;;;4.80;;
76896;SDS011;65856;52.178;21.176;2023-04-06T02:49:39;11.90;;;4.80;;
76896;SDS011;65856;52.178;21.176;2023-04-06T02:52:09;12.20;;;5.20;;
76896;SDS011;65856;52.178;21.176;2023-04-06T02:54:40;10.70;;;4.60;;
76896;SDS011;65856;52.178;21.176;2023-04-06T02:57:11;10.40;;;5.10;;
76896;SDS011;65856;52.178;21.176;2023-04-06T02:59:41;11.90;;;5.30;;
76896;SDS011;65856;52.178;21.176;2023-04-06T03:02:12;12.30;;;5.40;;
76896;SDS011;65856;52.178;21.176;2023-04-06T03:04:43;12.10;;;5.00;;
76896;SDS011;65856;52.178;21.176;2023-04-06T03:07:14;10.20;;;5.50;;
76896;SDS011;65856;52.178;21.176;2023-04-06T03:09:45;11.60;;;5.50;;
76896;SDS011;65856;52.178;21.176;2023-04-06T03:12:15;10.90;;;5.40;;
76896;SDS011;65856;52.178;21.176;2023-04-06T03:14:46;11.30;;;5.00;;
76896;SDS011;65856;52.178;21.176;2023-04-06T03:17:17;14.30;;;5.60;;
76896;SDS011;65856;52.178;21.176;2023-04-06T03:19:47;9.20;;;5.00;;
76896;SDS011;65856;52.178;21.176;2023-04-06T03:22:19;16.20;;;5.50;;
76896;SDS011;65856;52.178;21.176;2023-04-06T03:24:50;13.10;;;5.40;;
76896;SDS011;65856;52.178;21.176;2023-04-06T03:27:20;11.60;;;5.60;;
76896;SDS011;65856;52.178;21.176;2023-04-06T03:29:51;12.60;;;6.00;;
76896;SDS011;65856;52.178;21.176;2023-04-06T03:32:22;15.30;;;6.00;;
76896;SDS011;65856;52.178;21.176;2023-04-06T03:34:52;12.90;;;6.00;;
76896;SDS011;65856;52.178;21.176;2023-04-06T03:37:23;16.20;;;6.70;;
76896;SDS011;65856;52.178;21.176;2023-04-06T03:39:54;13.90;;;6.10;;
76896;SDS011;65856;52.178;21.176;2023-04-06T03:42:25;12.60;;;5.90;;
76896;SDS011;65856;52.178;21.176;2023-04-06T03:44:55;14.10;;;6.60;;
76896;SDS011;65856;52.178;21.176;2023-04-06T03:47:26;13.20;;;6.30;;
76896;SDS011;65856;52.178;21.176;2023-04-06T03:49:56;10.50;;;5.20;;
76896;SDS011;65856;52.178;21.176;2023-04-06T03:52:27;10.20;;;5.40;;
76896;SDS011;65856;52.178;21.176;2023-04-06T03:54:58;12.30;;;5.20;;
76896;SDS011;65856;52.178;21.176;2023-04-06T03:57:28;11.50;;;5.40;;
76896;SDS011;65856;52.178;21.176;2023-04-06T03:59:59;11.10;;;5.40;;
76896;SDS011;65856;52.178;21.176;2023-04-06T04:02:30;12.80;;;6.10;;
76896;SDS011;65856;52.178;21.176;2023-04-06T04:05:00;13.60;;;5.50;;
76896;SDS011;65856;52.178;21.176;2023-04-06T04:07:31;13.60;;;5.90;;
76896;SDS011;65856;52.178;21.176;2023-04-06T04:10:02;12.50;;;5.70;;
76896;SDS011;65856;52.178;21.176;2023-04-06T04:12:33;12.30;;;5.70;;
76896;SDS011;65856;52.178;21.176;2023-04-06T04:15:06;11.70;;;5.40;;
76896;SDS011;65856;52.178;21.176;2023-04-06T04:17:37;13.80;;;6.40;;
76896;SDS011;65856;52.178;21.176;2023-04-06T04:20:10;11.70;;;5.10;;
76896;SDS011;65856;52.178;21.176;2023-04-06T04:22:42;13.00;;;5.60;;
76896;SDS011;65856;52.178;21.176;2023-04-06T04:25:13;14.30;;;5.90;;
76896;SDS011;65856;52.178;21.176;2023-04-06T04:27:44;15.70;;;6.30;;
76896;SDS011;65856;52.178;21.176;2023-04-06T04:30:14;16.60;;;6.90;;
76896;SDS011;65856;52.178;21.176;2023-04-06T04:32:45;16.20;;;7.90;;
76896;SDS011;65856;52.178;21.176;2023-04-06T04:35:16;15.80;;;7.20;;
76896;SDS011;65856;52.178;21.176;2023-04-06T04:37:47;17.00;;;6.70;;
76896;SDS011;65856;52.178;21.176;2023-04-06T04:40:17;16.40;;;6.30;;
76896;SDS011;65856;52.178;21.176;2023-04-06T04:42:48;12.00;;;5.90;;
76896;SDS011;65856;52.178;21.176;2023-04-06T04:45:19;24.80;;;7.60;;
76896;SDS011;65856;52.178;21.176;2023-04-06T04:47:50;18.60;;;6.40;;
76896;SDS011;65856;52.178;21.176;2023-04-06T04:50:21;13.90;;;6.50;;
76896;SDS011;65856;52.178;21.176;2023-04-06T04:52:51;12.90;;;5.50;;
76896;SDS011;65856;52.178;21.176;2023-04-06T04:55:22;13.30;;;5.30;;
76896;SDS011;65856;52.178;21.176;2023-04-06T04:57:52;12.70;;;5.80;;
76896;SDS011;65856;52.178;21.176;2023-04-06T05:00:23;14.40;;;5.60;;
76896;SDS011;65856;52.178;21.176;2023-04-06T05:02:54;12.70;;;4.90;;
76896;SDS011;65856;52.178;21.176;2023-04-06T05:05:25;14.00;;;5.40;;
76896;SDS011;65856;52.178;21.176;2023-04-06T05:07:56;11.50;;;5.40;;
76896;SDS011;65856;52.178;21.176;2023-04-06T05:10:26;16.20;;;5.50;;
76896;SDS011;65856;52.178;21.176;2023-04-06T05:12:57;18.50;;;6.80;;
76896;SDS011;65856;52.178;21.176;2023-04-06T05:15:28;13.40;;;5.20;;
76896;SDS011;65856;52.178;21.176;2023-04-06T05:17:58;10.90;;;4.80;;
76896;SDS011;65856;52.178;21.176;2023-04-06T05:20:29;12.70;;;4.80;;
76896;SDS011;65856;52.178;21.176;2023-04-06T05:23:00;10.20;;;4.70;;
76896;SDS011;65856;52.178;21.176;2023-04-06T05:25:31;13.60;;;5.00;;
76896;SDS011;65856;52.178;21.176;2023-04-06T05:28:02;12.80;;;5.20;;
76896;SDS011;65856;52.178;21.176;2023-04-06T05:30:32;10.30;;;4.50;;
76896;SDS011;65856;52.178;21.176;2023-04-06T05:33:04;11.20;;;4.00;;
76896;SDS011;65856;52.178;21.176;2023-04-06T05:35:34;10.90;;;4.20;;
76896;SDS011;65856;52.178;21.176;2023-04-06T05:38:07;10.80;;;4.40;;
76896;SDS011;65856;52.178;21.176;2023-04-06T05:40:38;14.10;;;5.30;;
76896;SDS011;65856;52.178;21.176;2023-04-06T05:43:09;12.10;;;4.80;;
76896;SDS011;65856;52.178;21.176;2023-04-06T05:45:40;9.30;;;3.90;;
76896;SDS011;65856;52.178;21.176;2023-04-06T05:48:12;11.30;;;4.30;;
76896;SDS011;65856;52.178;21.176;2023-04-06T05:50:46;8.70;;;4.10;;
76896;SDS011;65856;52.178;21.176;2023-04-06T05:53:18;8.30;;;3.60;;
76896;SDS011;65856;52.178;21.176;2023-04-06T05:55:49;11.50;;;4.20;;
76896;SDS011;65856;52.178;21.176;2023-04-06T05:58:20;8.80;;;4.30;;
76896;SDS011;65856;52.178;21.176;2023-04-06T06:00:50;11.40;;;4.60;;
76896;SDS011;65856;52.178;21.176;2023-04-06T06:03:25;8.10;;;3.60;;
76896;SDS011;65856;52.178;21.176;2023-04-06T06:06:00;9.30;;;3.80;;
76896;SDS011;65856;52.178;21.176;2023-04-06T06:08:32;10.70;;;3.80;;
76896;SDS011;65856;52.178;21.176;2023-04-06T06:11:03;8.60;;;4.20;;
76896;SDS011;65856;52.178;21.176;2023-04-06T06:13:33;13.50;;;4.20;;
76896;SDS011;65856;52.178;21.176;2023-04-06T06:16:05;10.30;;;3.80;;
76896;SDS011;65856;52.178;21.176;2023-04-06T06:18:36;14.00;;;4.00;;
76896;SDS011;65856;52.178;21.176;2023-04-06T06:21:06;7.30;;;3.40;;
76896;SDS011;65856;52.178;21.176;2023-04-06T06:23:39;7.70;;;3.40;;
76896;SDS011;65856;52.178;21.176;2023-04-06T06:26:10;11.50;;;4.50;;
76896;SDS011;65856;52.178;21.176;2023-04-06T06:28:41;9.00;;;3.70;;
76896;SDS011;65856;52.178;21.176;2023-04-06T06:31:12;8.80;;;4.00;;
76896;SDS011;65856;52.178;21.176;2023-04-06T06:33:42;7.90;;;3.90;;
76896;SDS011;65856;52.178;21.176;2023-04-06T06:36:13;11.10;;;3.60;;
76896;SDS011;65856;52.178;21.176;2023-04-06T06:38:44;6.80;;;3.70;;
76896;SDS011;65856;52.178;21.176;2023-04-06T06:41:15;7.40;;;3.00;;
76896;SDS011;65856;52.178;21.176;2023-04-06T06:43:46;6.20;;;3.10;;
76896;SDS011;65856;52.178;21.176;2023-04-06T06:46:16;6.50;;;3.50;;
76896;SDS011;65856;52.178;21.176;2023-04-06T06:48:47;5.40;;;2.90;;
76896;SDS011;65856;52.178;21.176;2023-04-06T06:51:18;6.00;;;2.50;;
76896;SDS011;65856;52.178;21.176;2023-04-06T06:53:48;6.00;;;2.50;;
76896;SDS011;65856;52.178;21.176;2023-04-06T06:56:19;3.70;;;2.10;;
76896;SDS011;65856;52.178;21.176;2023-04-06T06:58:50;5.30;;;2.60;;
76896;SDS011;65856;52.178;21.176;2023-04-06T07:01:20;5.20;;;2.90;;
76896;SDS011;65856;52.178;21.176;2023-04-06T07:03:51;5.40;;;2.50;;
76896;SDS011;65856;52.178;21.176;2023-04-06T07:06:22;8.20;;;3.20;;
76896;SDS011;65856;52.178;21.176;2023-04-06T07:08:53;6.50;;;2.70;;
76896;SDS011;65856;52.178;21.176;2023-04-06T07:11:23;6.30;;;3.10;;
76896;SDS011;65856;52.178;21.176;2023-04-06T07:13:54;5.70;;;2.60;;
76896;SDS011;65856;52.178;21.176;2023-04-06T07:16:25;5.60;;;2.90;;
76896;SDS011;65856;52.178;21.176;2023-04-06T07:18:55;5.90;;;2.50;;
76896;SDS011;65856;52.178;21.176;2023-04-06T07:21:26;4.00;;;2.30;;
76896;SDS011;65856;52.178;21.176;2023-04-06T07:23:56;5.90;;;2.50;;
76896;SDS011;65856;52.178;21.176;2023-04-06T07:26:27;6.70;;;2.50;;
76896;SDS011;65856;52.178;21.176;2023-04-06T07:28:58;5.30;;;2.30;;
76896;SDS011;65856;52.178;21.176;2023-04-06T07:31:28;3.80;;;2.30;;
76896;SDS011;65856;52.178;21.176;2023-04-06T07:33:59;6.30;;;2.50;;
76896;SDS011;65856;52.178;21.176;2023-04-06T07:36:30;4.90;;;2.50;;
76896;SDS011;65856;52.178;21.176;2023-04-06T07:39:00;4.40;;;2.80;;
76896;SDS011;65856;52.178;21.176;2023-04-06T07:41:31;7.10;;;2.40;;
76896;SDS011;65856;52.178;21.176;2023-04-06T07:44:02;6.40;;;2.50;;
76896;SDS011;65856;52.178;21.176;2023-04-06T07:46:33;3.80;;;2.40;;
76896;SDS011;65856;52.178;21.176;2023-04-06T07:49:04;5.50;;;2.80;;
76896;SDS011;65856;52.178;21.176;2023-04-06T07:51:37;5.80;;;2.10;;
76896;SDS011;65856;52.178;21.176;2023-04-06T07:54:08;4.90;;;2.40;;
76896;SDS011;65856;52.178;21.176;2023-04-06T07:56:39;4.20;;;2.50;;
76896;SDS011;65856;52.178;21.176;2023-04-06T07:59:09;5.30;;;2.60;;
76896;SDS011;65856;52.178;21.176;2023-04-06T08:01:41;5.80;;;2.50;;
76896;SDS011;65856;52.178;21.176;2023-04-06T08:04:12;4.30;;;2.50;;
76896;SDS011;65856;52.178;21.176;2023-04-06T08:06:43;4.20;;;2.50;;
76896;SDS011;65856;52.178;21.176;2023-04-06T08:09:13;5.00;;;2.70;;
76896;SDS011;65856;52.178;21.176;2023-04-06T08:11:44;7.90;;;2.70;;
76896;SDS011;65856;52.178;21.176;2023-04-06T08:14:16;6.40;;;2.60;;
76896;SDS011;65856;52.178;21.176;2023-04-06T08:16:47;6.40;;;2.50;;
76896;SDS011;65856;52.178;21.176;2023-04-06T08:19:18;6.80;;;2.60;;
76896;SDS011;65856;52.178;21.176;2023-04-06T08:21:49;4.90;;;2.70;;
76896;SDS011;65856;52.178;21.176;2023-04-06T08:24:20;6.20;;;3.00;;
76896;SDS011;65856;52.178;21.176;2023-04-06T08:26:50;5.90;;;3.00;;
76896;SDS011;65856;52.178;21.176;2023-04-06T08:29:21;8.40;;;3.00;;
76896;SDS011;65856;52.178;21.176;2023-04-06T08:31:52;5.60;;;2.80;;
76896;SDS011;65856;52.178;21.176;2023-04-06T08:34:23;6.00;;;3.10;;
76896;SDS011;65856;52.178;21.176;2023-04-06T08:36:53;5.80;;;3.00;;
76896;SDS011;65856;52.178;21.176;2023-04-06T08:39:24;6.20;;;3.00;;
76896;SDS011;65856;52.178;21.176;2023-04-06T08:41:55;6.80;;;3.10;;
76896;SDS011;65856;52.178;21.176;2023-04-06T08:44:27;6.20;;;2.80;;
76896;SDS011;65856;52.178;21.176;2023-04-06T08:47:00;4.90;;;2.90;;
76896;SDS011;65856;52.178;21.176;2023-04-06T08:49:33;5.60;;;2.70;;
76896;SDS011;65856;52.178;21.176;2023-04-06T08:52:07;6.40;;;2.90;;
76896;SDS011;65856;52.178;21.176;2023-04-06T08:54:39;8.30;;;3.40;;
76896;SDS011;65856;52.178;21.176;2023-04-06T08:57:10;9.10;;;3.50;;
76896;SDS011;65856;52.178;21.176;2023-04-06T08:59:41;5.40;;;3.10;;
76896;SDS011;65856;52.178;21.176;2023-04-06T09:02:17;5.70;;;3.00;;
76896;SDS011;65856;52.178;21.176;2023-04-06T09:04:49;5.90;;;2.70;;
76896;SDS011;65856;52.178;21.176;2023-04-06T09:07:23;7.70;;;3.40;;
76896;SDS011;65856;52.178;21.176;2023-04-06T09:09:53;8.50;;;3.30;;
76896;SDS011;65856;52.178;21.176;2023-04-06T09:12:25;6.00;;;3.00;;
76896;SDS011;65856;52.178;21.176;2023-04-06T09:14:58;5.40;;;2.80;;
76896;SDS011;65856;52.178;21.176;2023-04-06T09:17:31;5.10;;;3.10;;
76896;SDS011;65856;52.178;21.176;2023-04-06T09:20:05;7.10;;;3.10;;
76896;SDS011;65856;52.178;21.176;2023-04-06T09:22:40;5.30;;;2.90;;
76896;SDS011;65856;52.178;21.176;2023-04-06T09:25:19;4.70;;;2.60;;
76896;SDS011;65856;52.178;21.176;2023-04-06T09:27:59;6.10;;;3.20;;
76896;SDS011;65856;52.178;21.176;2023-04-06T09:30:31;7.70;;;3.00;;
76896;SDS011;65856;52.178;21.176;2023-04-06T09:33:03;6.50;;;3.30;;
76896;SDS011;65856;52.178;21.176;2023-04-06T09:35:34;4.30;;;2.80;;
76896;SDS011;65856;52.178;21.176;2023-04-06T09:38:11;6.30;;;3.40;;
76896;SDS011;65856;52.178;21.176;2023-04-06T09:40:51;4.80;;;2.70;;
76896;SDS011;65856;52.178;21.176;2023-04-06T09:43:28;5.00;;;2.80;;
76896;SDS011;65856;52.178;21.176;2023-04-06T09:46:01;7.50;;;2.90;;
76896;SDS011;65856;52.178;21.176;2023-04-06T09:48:34;5.70;;;3.50;;
76896;SDS011;65856;52.178;21.176;2023-04-06T09:51:07;5.20;;;3.20;;
76896;SDS011;65856;52.178;21.176;2023-04-06T09:53:43;4.90;;;2.70;;
76896;SDS011;65856;52.178;21.176;2023-04-06T09:56:24;4.80;;;2.60;;
76896;SDS011;65856;52.178;21.176;2023-04-06T10:01:38;6.40;;;3.00;;
76896;SDS011;65856;52.178;21.176;2023-04-06T10:04:21;5.90;;;3.00;;
76896;SDS011;65856;52.178;21.176;2023-04-06T10:07:00;6.50;;;2.70;;
76896;SDS011;65856;52.178;21.176;2023-04-06T10:09:32;6.00;;;3.10;;
76896;SDS011;65856;52.178;21.176;2023-04-06T10:12:06;5.20;;;2.90;;
76896;SDS011;65856;52.178;21.176;2023-04-06T10:14:38;4.40;;;2.70;;
76896;SDS011;65856;52.178;21.176;2023-04-06T10:17:09;6.30;;;3.30;;
76896;SDS011;65856;52.178;21.176;2023-04-06T10:19:46;5.40;;;2.80;;
76896;SDS011;65856;52.178;21.176;2023-04-06T10:22:26;7.20;;;3.00;;
76896;SDS011;65856;52.178;21.176;2023-04-06T10:25:03;5.10;;;2.80;;
76896;SDS011;65856;52.178;21.176;2023-04-06T10:27:36;5.90;;;2.70;;
76896;SDS011;65856;52.178;21.176;2023-04-06T10:30:08;4.70;;;2.90;;
76896;SDS011;65856;52.178;21.176;2023-04-06T10:32:40;5.70;;;2.80;;
76896;SDS011;65856;52.178;21.176;2023-04-06T10:35:12;6.20;;;3.20;;
76896;SDS011;65856;52.178;21.176;2023-04-06T10:37:51;5.70;;;2.60;;
76896;SDS011;65856;52.178;21.176;2023-04-06T10:40:26;4.40;;;2.70;;
76896;SDS011;65856;52.178;21.176;2023-04-06T10:43:09;6.90;;;3.00;;
76896;SDS011;65856;52.178;21.176;2023-04-06T10:45:41;5.90;;;3.30;;
76896;SDS011;65856;52.178;21.176;2023-04-06T10:48:16;5.90;;;3.40;;
76896;SDS011;65856;52.178;21.176;2023-04-06T10:50:49;7.60;;;3.50;;
76896;SDS011;65856;52.178;21.176;2023-04-06T10:53:24;6.40;;;4.00;;
76896;SDS011;65856;52.178;21.176;2023-04-06T10:55:56;5.60;;;3.20;;
76896;SDS011;65856;52.178;21.176;2023-04-06T10:58:28;6.50;;;3.10;;
76896;SDS011;65856;52.178;21.176;2023-04-06T11:00:59;6.80;;;3.30;;
76896;SDS011;65856;52.178;21.176;2023-04-06T11:03:31;6.90;;;3.10;;
76896;SDS011;65856;52.178;21.176;2023-04-06T11:06:10;6.30;;;3.00;;
76896;SDS011;65856;52.178;21.176;2023-04-06T11:08:48;6.30;;;3.70;;
76896;SDS011;65856;52.178;21.176;2023-04-06T11:11:21;7.30;;;3.70;;
76896;SDS011;65856;52.178;21.176;2023-04-06T11:13:55;7.10;;;3.40;;
76896;SDS011;65856;52.178;21.176;2023-04-06T11:16:29;6.10;;;3.20;;
76896;SDS011;65856;52.178;21.176;2023-04-06T11:19:02;5.90;;;3.50;;
76896;SDS011;65856;52.178;21.176;2023-04-06T11:21:35;6.20;;;3.60;;
76896;SDS011;65856;52.178;21.176;2023-04-06T11:24:12;6.60;;;3.60;;
76896;SDS011;65856;52.178;21.176;2023-04-06T11:26:45;7.30;;;3.80;;
76896;SDS011;65856;52.178;21.176;2023-04-06T11:29:20;8.80;;;3.40;;
76896;SDS011;65856;52.178;21.176;2023-04-06T11:31:52;7.60;;;3.90;;
76896;SDS011;65856;52.178;21.176;2023-04-06T11:34:29;7.00;;;3.50;;
76896;SDS011;65856;52.178;21.176;2023-04-06T11:37:02;7.50;;;3.60;;
76896;SDS011;65856;52.178;21.176;2023-04-06T11:39:40;6.10;;;3.80;;
76896;SDS011;65856;52.178;21.176;2023-04-06T11:42:12;7.40;;;3.10;;
76896;SDS011;65856;52.178;21.176;2023-04-06T11:44:51;5.30;;;3.00;;
76896;SDS011;65856;52.178;21.176;2023-04-06T11:47:28;5.40;;;3.10;;
76896;SDS011;65856;52.178;21.176;2023-04-06T11:50:08;6.40;;;3.80;;
76896;SDS011;65856;52.178;21.176;2023-04-06T11:52:42;7.30;;;3.80;;
76896;SDS011;65856;52.178;21.176;2023-04-06T11:55:15;5.40;;;3.10;;
76896;SDS011;65856;52.178;21.176;2023-04-06T11:57:46;5.40;;;3.40;;
76896;SDS011;65856;52.178;21.176;2023-04-06T12:00:19;7.20;;;3.60;;
76896;SDS011;65856;52.178;21.176;2023-04-06T12:02:51;8.40;;;3.10;;
76896;SDS011;65856;52.178;21.176;2023-04-06T12:05:21;6.40;;;3.20;;
76896;SDS011;65856;52.178;21.176;2023-04-06T12:07:52;7.60;;;3.40;;
76896;SDS011;65856;52.178;21.176;2023-04-06T12:10:23;7.00;;;3.50;;
76896;SDS011;65856;52.178;21.176;2023-04-06T12:12:54;6.70;;;3.60;;
76896;SDS011;65856;52.178;21.176;2023-04-06T12:15:25;7.40;;;3.30;;
76896;SDS011;65856;52.178;21.176;2023-04-06T12:17:55;6.00;;;3.20;;
76896;SDS011;65856;52.178;21.176;2023-04-06T12:20:26;7.00;;;2.90;;
76896;SDS011;65856;52.178;21.176;2023-04-06T12:22:56;6.20;;;3.20;;
76896;SDS011;65856;52.178;21.176;2023-04-06T12:25:27;7.70;;;3.50;;
76896;SDS011;65856;52.178;21.176;2023-04-06T12:27:58;7.90;;;4.10;;
76896;SDS011;65856;52.178;21.176;2023-04-06T12:30:28;6.00;;;3.60;;
76896;SDS011;65856;52.178;21.176;2023-04-06T12:33:00;4.80;;;3.00;;
76896;SDS011;65856;52.178;21.176;2023-04-06T12:35:34;7.80;;;3.40;;
76896;SDS011;65856;52.178;21.176;2023-04-06T12:38:05;5.30;;;3.60;;
76896;SDS011;65856;52.178;21.176;2023-04-06T12:40:38;7.50;;;3.80;;
76896;SDS011;65856;52.178;21.176;2023-04-06T12:43:09;7.20;;;3.70;;
76896;SDS011;65856;52.178;21.176;2023-04-06T12:45:41;8.00;;;3.70;;
76896;SDS011;65856;52.178;21.176;2023-04-06T12:48:11;7.60;;;4.50;;
76896;SDS011;65856;52.178;21.176;2023-04-06T12:50:42;8.00;;;4.10;;
76896;SDS011;65856;52.178;21.176;2023-04-06T12:53:13;7.50;;;3.70;;
76896;SDS011;65856;52.178;21.176;2023-04-06T12:55:43;6.80;;;3.90;;
76896;SDS011;65856;52.178;21.176;2023-04-06T12:58:14;6.50;;;3.90;;
76896;SDS011;65856;52.178;21.176;2023-04-06T13:00:45;7.30;;;3.90;;
76896;SDS011;65856;52.178;21.176;2023-04-06T13:03:16;8.30;;;4.40;;
76896;SDS011;65856;52.178;21.176;2023-04-06T13:05:48;6.30;;;3.80;;
76896;SDS011;65856;52.178;21.176;2023-04-06T13:08:20;8.70;;;4.00;;
76896;SDS011;65856;52.178;21.176;2023-04-06T13:10:51;6.60;;;4.00;;
76896;SDS011;65856;52.178;21.176;2023-04-06T13:13:25;4.80;;;3.20;;
76896;SDS011;65856;52.178;21.176;2023-04-06T13:15:58;6.00;;;3.50;;
76896;SDS011;65856;52.178;21.176;2023-04-06T13:18:30;5.60;;;3.30;;
76896;SDS011;65856;52.178;21.176;2023-04-06T13:23:31;5.20;;;3.20;;
76896;SDS011;65856;52.178;21.176;2023-04-06T13:26:03;6.40;;;3.00;;
76896;SDS011;65856;52.178;21.176;2023-04-06T13:28:36;6.50;;;3.90;;
76896;SDS011;65856;52.178;21.176;2023-04-06T13:31:07;6.80;;;4.60;;
76896;SDS011;65856;52.178;21.176;2023-04-06T13:33:38;6.80;;;3.80;;
76896;SDS011;65856;52.178;21.176;2023-04-06T13:36:09;8.90;;;4.30;;
76896;SDS011;65856;52.178;21.176;2023-04-06T13:38:40;6.90;;;4.50;;
76896;SDS011;65856;52.178;21.176;2023-04-06T13:41:10;9.40;;;4.40;;
76896;SDS011;65856;52.178;21.176;2023-04-06T13:43:48;6.40;;;3.50;;
76896;SDS011;65856;52.178;21.176;2023-04-06T13:46:19;7.80;;;4.00;;
76896;SDS011;65856;52.178;21.176;2023-04-06T13:48:51;9.10;;;3.50;;
76896;SDS011;65856;52.178;21.176;2023-04-06T13:51:22;6.60;;;4.30;;
76896;SDS011;65856;52.178;21.176;2023-04-06T13:53:54;8.90;;;4.30;;
76896;SDS011;65856;52.178;21.176;2023-04-06T13:56:25;8.60;;;4.20;;
76896;SDS011;65856;52.178;21.176;2023-04-06T13:58:56;8.00;;;4.10;;
76896;SDS011;65856;52.178;21.176;2023-04-06T14:01:27;6.00;;;4.10;;
76896;SDS011;65856;52.178;21.176;2023-04-06T14:03:57;8.30;;;3.90;;
76896;SDS011;65856;52.178;21.176;2023-04-06T14:06:28;6.40;;;4.30;;
76896;SDS011;65856;52.178;21.176;2023-04-06T14:08:59;7.30;;;4.60;;
76896;SDS011;65856;52.178;21.176;2023-04-06T14:11:29;10.10;;;4.60;;
76896;SDS011;65856;52.178;21.176;2023-04-06T14:14:00;8.30;;;4.90;;
76896;SDS011;65856;52.178;21.176;2023-04-06T14:16:31;7.60;;;4.60;;
76896;SDS011;65856;52.178;21.176;2023-04-06T14:19:01;9.10;;;4.80;;
76896;SDS011;65856;52.178;21.176;2023-04-06T14:21:32;7.60;;;4.10;;
76896;SDS011;65856;52.178;21.176;2023-04-06T14:24:03;7.90;;;4.70;;
76896;SDS011;65856;52.178;21.176;2023-04-06T14:26:34;7.90;;;4.80;;
76896;SDS011;65856;52.178;21.176;2023-04-06T14:29:05;9.00;;;5.60;;
76896;SDS011;65856;52.178;21.176;2023-04-06T14:31:36;10.00;;;5.60;;
76896;SDS011;65856;52.178;21.176;2023-04-06T14:34:07;9.40;;;4.70;;
76896;SDS011;65856;52.178;21.176;2023-04-06T14:36:37;9.20;;;6.10;;
76896;SDS011;65856;52.178;21.176;2023-04-06T14:39:08;9.70;;;5.80;;
76896;SDS011;65856;52.178;21.176;2023-04-06T14:41:39;8.60;;;4.70;;
76896;SDS011;65856;52.178;21.176;2023-04-06T14:44:09;8.90;;;5.30;;
76896;SDS011;65856;52.178;21.176;2023-04-06T14:46:41;8.60;;;5.10;;
76896;SDS011;65856;52.178;21.176;2023-04-06T14:49:11;6.90;;;4.50;;
76896;SDS011;65856;52.178;21.176;2023-04-06T14:51:42;8.10;;;4.60;;
76896;SDS011;65856;52.178;21.176;2023-04-06T14:54:13;7.40;;;4.20;;
76896;SDS011;65856;52.178;21.176;2023-04-06T14:56:43;10.90;;;4.90;;
76896;SDS011;65856;52.178;21.176;2023-04-06T14:59:14;7.80;;;4.10;;